createdAt,value
2018-06-05T00:00:05.613Z,1008.01
2018-06-05T00:01:05.599Z,1008.00
2018-06-05T00:02:05.578Z,1008.00
2018-06-05T00:03:05.567Z,1008.04
2018-06-05T00:04:05.551Z,1008.01
2018-06-05T00:05:05.537Z,1008.07
2018-06-05T00:06:05.519Z,1008.05
2018-06-05T00:07:05.508Z,1008.03
2018-06-05T00:08:05.491Z,1008.05
2018-06-05T00:09:05.482Z,1008.03
2018-06-05T00:10:05.472Z,1008.07
2018-06-05T00:11:05.449Z,1008.04
2018-06-05T00:12:05.433Z,1008.01
2018-06-05T00:13:05.421Z,1008.04
2018-06-05T00:14:05.401Z,1008.04
2018-06-05T00:15:05.388Z,1008.00
2018-06-05T00:16:05.376Z,1008.02
2018-06-05T00:17:05.360Z,1008.01
2018-06-05T00:18:05.344Z,1008.06
2018-06-05T00:19:05.366Z,1007.99
2018-06-05T00:20:05.317Z,1008.04
2018-06-05T00:21:05.298Z,1008.06
2018-06-05T00:22:05.289Z,1008.04
2018-06-05T00:23:05.277Z,1008.03
2018-06-05T00:24:05.256Z,1008.04
2018-06-05T00:25:05.241Z,1008.01
2018-06-05T00:26:05.228Z,1008.04
2018-06-05T00:27:05.215Z,1007.99
2018-06-05T00:28:05.204Z,1007.99
2018-06-05T00:29:05.183Z,1008.00
2018-06-05T00:30:05.169Z,1008.00
2018-06-05T00:31:05.158Z,1008.02
2018-06-05T00:32:05.135Z,1008.01
2018-06-05T00:33:05.127Z,1007.98
2018-06-05T00:34:05.107Z,1008.00
2018-06-05T00:35:05.090Z,1007.98
2018-06-05T00:36:05.075Z,1007.97
2018-06-05T00:37:05.067Z,1008.01
2018-06-05T00:38:05.048Z,1007.95
2018-06-05T00:39:05.038Z,1007.95
2018-06-05T00:40:05.019Z,1007.98
2018-06-05T00:41:05.004Z,1007.99
2018-06-05T00:42:04.995Z,1007.98
2018-06-05T00:43:04.972Z,1007.95
2018-06-05T00:44:04.958Z,1007.97
2018-06-05T00:45:04.947Z,1007.98
2018-06-05T00:46:04.928Z,1007.97
2018-06-05T00:47:04.927Z,1007.96
2018-06-05T00:48:04.897Z,1007.93
2018-06-05T00:49:04.883Z,1007.98
2018-06-05T00:50:04.868Z,1007.95
2018-06-05T00:51:04.852Z,1007.93
2018-06-05T00:52:04.842Z,1007.95
2018-06-05T00:53:04.826Z,1007.91
2018-06-05T00:54:04.808Z,1007.92
2018-06-05T00:55:04.797Z,1007.91
2018-06-05T00:56:04.778Z,1007.88
2018-06-05T00:57:04.766Z,1007.87
2018-06-05T00:58:04.748Z,1007.88
2018-06-05T00:59:04.743Z,1007.87
2018-06-05T01:00:04.719Z,1007.84
2018-06-05T01:01:04.708Z,1007.83
2018-06-05T01:02:04.696Z,1007.80
2018-06-05T01:03:04.681Z,1007.83
2018-06-05T01:04:04.660Z,1007.79
2018-06-05T01:05:04.645Z,1007.81
2018-06-05T01:06:04.632Z,1007.79
2018-06-05T01:07:04.617Z,1007.79
2018-06-05T01:08:04.599Z,1007.79
2018-06-05T01:09:04.642Z,1007.78
2018-06-05T01:10:04.574Z,1007.78
2018-06-05T01:11:04.558Z,1007.73
2018-06-05T01:12:04.543Z,1007.75
2018-06-05T01:13:04.530Z,1007.73
2018-06-05T01:14:04.514Z,1007.71
2018-06-05T01:15:04.503Z,1007.71
2018-06-05T01:16:04.481Z,1007.68
2018-06-05T01:17:04.465Z,1007.70
2018-06-05T01:18:04.459Z,1007.70
2018-06-05T01:19:04.438Z,1007.77
2018-06-05T01:20:04.422Z,1007.79
2018-06-05T01:21:04.410Z,1007.82
2018-06-05T01:22:04.395Z,1007.83
2018-06-05T01:23:04.380Z,1007.81
2018-06-05T01:24:04.405Z,1007.82
2018-06-05T01:25:04.347Z,1007.85
2018-06-05T01:26:04.330Z,1007.85
2018-06-05T01:27:04.314Z,1007.81
2018-06-05T01:28:04.299Z,1007.83
2018-06-05T01:29:04.288Z,1007.83
2018-06-05T01:30:04.275Z,1007.83
2018-06-05T01:31:04.261Z,1007.80
2018-06-05T01:32:04.243Z,1007.84
2018-06-05T01:33:04.228Z,1007.83
2018-06-05T01:34:04.212Z,1007.81
2018-06-05T01:35:04.201Z,1007.81
2018-06-05T01:36:04.180Z,1007.79
2018-06-05T01:37:04.167Z,1007.80
2018-06-05T01:38:04.156Z,1007.82
2018-06-05T01:39:04.291Z,1007.82
2018-06-05T01:40:04.124Z,1007.80
2018-06-05T01:41:04.113Z,1007.80
2018-06-05T01:42:04.092Z,1007.79
2018-06-05T01:43:04.078Z,1007.82
2018-06-05T01:44:04.063Z,1007.82
2018-06-05T01:45:04.050Z,1007.81
2018-06-05T01:46:04.031Z,1007.82
2018-06-05T01:47:04.020Z,1007.86
2018-06-05T01:48:04.010Z,1007.83
2018-06-05T01:49:03.990Z,1007.82
2018-06-05T01:50:03.975Z,1007.83
2018-06-05T01:51:03.959Z,1007.81
2018-06-05T01:52:03.942Z,1007.81
2018-06-05T01:53:03.929Z,1007.81
2018-06-05T01:54:03.916Z,1007.85
2018-06-05T01:55:04.049Z,1007.83
2018-06-05T01:56:03.886Z,1007.81
2018-06-05T01:57:03.866Z,1007.84
2018-06-05T01:58:03.853Z,1007.93
2018-06-05T01:59:03.840Z,1007.88
2018-06-05T02:00:03.824Z,1007.93
2018-06-05T02:01:03.807Z,1007.91
2018-06-05T02:02:03.794Z,1007.91
2018-06-05T02:03:03.777Z,1007.90
2018-06-05T02:04:03.760Z,1007.89
2018-06-05T02:05:03.752Z,1007.85
2018-06-05T02:06:03.742Z,1007.88
2018-06-05T02:07:03.717Z,1007.85
2018-06-05T02:08:03.698Z,1007.86
2018-06-05T02:09:03.688Z,1007.89
2018-06-05T02:10:03.672Z,1007.89
2018-06-05T02:11:03.657Z,1007.90
2018-06-05T02:12:03.638Z,1007.90
2018-06-05T02:13:03.624Z,1007.91
2018-06-05T02:14:03.664Z,1007.94
2018-06-05T02:15:03.595Z,1007.94
2018-06-05T02:16:03.578Z,1007.96
2018-06-05T02:17:03.578Z,1007.96
2018-06-05T02:18:03.558Z,1007.95
2018-06-05T02:19:03.536Z,1007.92
2018-06-05T02:20:03.517Z,1007.91
2018-06-05T02:21:03.507Z,1007.96
2018-06-05T02:22:03.489Z,1007.89
2018-06-05T02:23:03.474Z,1007.87
2018-06-05T02:24:03.463Z,1007.87
2018-06-05T02:25:03.444Z,1007.88
2018-06-05T02:26:03.435Z,1007.92
2018-06-05T02:27:03.412Z,1007.88
2018-06-05T02:28:03.399Z,1007.87
2018-06-05T02:29:03.389Z,1007.90
2018-06-05T02:30:03.368Z,1007.85
2018-06-05T02:31:03.359Z,1007.82
2018-06-05T02:32:03.340Z,1007.85
2018-06-05T02:33:03.325Z,1007.87
2018-06-05T02:34:03.309Z,1007.85
2018-06-05T02:35:03.295Z,1007.85
2018-06-05T02:36:03.278Z,1007.82
2018-06-05T02:37:03.266Z,1007.84
2018-06-05T02:38:03.332Z,1007.84
2018-06-05T02:39:03.228Z,1007.84
2018-06-05T02:40:03.219Z,1007.86
2018-06-05T02:41:03.244Z,1007.81
2018-06-05T02:42:03.183Z,1007.84
2018-06-05T02:43:03.168Z,1007.81
2018-06-05T02:44:03.206Z,1007.80
2018-06-05T02:45:03.138Z,1007.78
2018-06-05T02:46:03.128Z,1007.79
2018-06-05T02:47:03.107Z,1007.82
2018-06-05T02:48:03.095Z,1007.82
2018-06-05T02:49:03.082Z,1007.83
2018-06-05T02:50:03.068Z,1007.85
2018-06-05T02:51:03.047Z,1007.84
2018-06-05T02:52:03.031Z,1007.86
2018-06-05T02:53:03.015Z,1007.87
2018-06-05T02:54:03.000Z,1007.88
2018-06-05T02:55:02.982Z,1007.88
2018-06-05T02:56:02.969Z,1007.92
2018-06-05T02:57:03.017Z,1007.93
2018-06-05T02:58:02.936Z,1007.90
2018-06-05T02:59:02.921Z,1007.94
2018-06-05T03:00:02.967Z,1007.94
2018-06-05T03:01:02.892Z,1007.99
2018-06-05T03:02:02.876Z,1007.95
2018-06-05T03:03:02.866Z,1007.99
2018-06-05T03:04:02.848Z,1008.03
2018-06-05T03:05:02.834Z,1008.00
2018-06-05T03:06:02.822Z,1007.98
2018-06-05T03:07:02.799Z,1007.97
2018-06-05T03:08:02.787Z,1008.00
2018-06-05T03:09:02.769Z,1007.99
2018-06-05T03:10:02.753Z,1007.99
2018-06-05T03:11:02.742Z,1007.98
2018-06-05T03:12:02.723Z,1007.96
2018-06-05T03:13:02.707Z,1007.96
2018-06-05T03:14:02.699Z,1007.96
2018-06-05T03:15:02.679Z,1007.95
2018-06-05T03:16:02.661Z,1008.00
2018-06-05T03:17:02.649Z,1008.00
2018-06-05T03:18:02.637Z,1008.00
2018-06-05T03:19:02.620Z,1008.01
2018-06-05T03:20:02.604Z,1008.00
2018-06-05T03:21:02.589Z,1008.00
2018-06-05T03:22:02.572Z,1008.00
2018-06-05T03:23:02.556Z,1007.99
2018-06-05T03:24:02.595Z,1007.99
2018-06-05T03:25:02.528Z,1007.99
2018-06-05T03:26:02.523Z,1007.98
2018-06-05T03:27:02.500Z,1008.01
2018-06-05T03:28:02.486Z,1008.01
2018-06-05T03:29:02.467Z,1007.98
2018-06-05T03:30:02.452Z,1008.01
2018-06-05T03:31:02.435Z,1008.00
2018-06-05T03:32:02.422Z,1008.02
2018-06-05T03:33:02.405Z,1008.01
2018-06-05T03:34:02.446Z,1008.02
2018-06-05T03:35:02.374Z,1008.05
2018-06-05T03:36:02.359Z,1008.05
2018-06-05T03:37:02.349Z,1008.04
2018-06-05T03:38:02.329Z,1008.06
2018-06-05T03:39:02.320Z,1008.02
2018-06-05T03:40:02.303Z,1008.03
2018-06-05T03:41:02.291Z,1008.04
2018-06-05T03:42:02.271Z,1008.05
2018-06-05T03:43:02.365Z,1008.03
2018-06-05T03:44:02.239Z,1008.00
2018-06-05T03:45:02.227Z,1008.02
2018-06-05T03:46:02.261Z,1008.05
2018-06-05T03:47:02.202Z,1008.07
2018-06-05T03:48:02.178Z,1008.06
2018-06-05T03:49:02.170Z,1008.06
2018-06-05T03:50:02.151Z,1008.03
2018-06-05T03:51:02.138Z,1008.11
2018-06-05T03:52:02.119Z,1008.10
2018-06-05T03:53:02.101Z,1008.08
2018-06-05T03:54:02.091Z,1008.11
2018-06-05T03:55:02.073Z,1008.11
2018-06-05T03:56:02.059Z,1008.12
2018-06-05T03:57:02.091Z,1008.14
2018-06-05T03:58:02.029Z,1008.11
2018-06-05T03:59:02.010Z,1008.12
2018-06-05T04:00:01.996Z,1008.10
2018-06-05T04:01:01.980Z,1008.11
2018-06-05T04:02:02.019Z,1008.11
2018-06-05T04:03:01.950Z,1008.11
2018-06-05T04:04:01.942Z,1008.08
2018-06-05T04:05:01.920Z,1008.08
2018-06-05T04:06:01.906Z,1008.08
2018-06-05T04:07:01.890Z,1008.08
2018-06-05T04:08:01.877Z,1008.09
2018-06-05T04:09:01.859Z,1008.09
2018-06-05T04:10:01.846Z,1008.13
2018-06-05T04:11:01.829Z,1008.05
2018-06-05T04:12:01.817Z,1008.13
2018-06-05T04:13:01.796Z,1008.14
2018-06-05T04:14:01.782Z,1008.16
2018-06-05T04:15:01.772Z,1008.16
2018-06-05T04:16:01.761Z,1008.20
2018-06-05T04:17:01.738Z,1008.19
2018-06-05T04:18:01.718Z,1008.17
2018-06-05T04:19:01.716Z,1008.19
2018-06-05T04:20:01.693Z,1008.14
2018-06-05T04:21:01.677Z,1008.14
2018-06-05T04:22:01.662Z,1008.15
2018-06-05T04:23:01.693Z,1008.15
2018-06-05T04:24:01.630Z,1008.20
2018-06-05T04:25:01.615Z,1008.19
2018-06-05T04:26:01.599Z,1008.19
2018-06-05T04:27:01.634Z,1008.20
2018-06-05T04:28:01.569Z,1008.21
2018-06-05T04:29:01.561Z,1008.21
2018-06-05T04:30:01.539Z,1008.23
2018-06-05T04:31:01.530Z,1008.16
2018-06-05T04:32:01.512Z,1008.16
2018-06-05T04:33:01.497Z,1008.17
2018-06-05T04:34:01.478Z,1008.21
2018-06-05T04:35:01.459Z,1008.19
2018-06-05T04:36:01.446Z,1008.19
2018-06-05T04:37:01.432Z,1008.21
2018-06-05T04:38:01.425Z,1008.22
2018-06-05T04:39:01.409Z,1008.28
2018-06-05T04:40:01.385Z,1008.22
2018-06-05T04:41:01.369Z,1008.22
2018-06-05T04:42:01.404Z,1008.26
2018-06-05T04:43:01.339Z,1008.32
2018-06-05T04:44:01.331Z,1008.33
2018-06-05T04:45:01.311Z,1008.32
2018-06-05T04:46:01.298Z,1008.32
2018-06-05T04:47:01.279Z,1008.36
2018-06-05T04:48:01.267Z,1008.36
2018-06-05T04:49:01.249Z,1008.38
2018-06-05T04:50:01.237Z,1008.38
2018-06-05T04:51:01.216Z,1008.38
2018-06-05T04:52:01.206Z,1008.39
2018-06-05T04:53:01.186Z,1008.46
2018-06-05T04:54:01.169Z,1008.46
2018-06-05T04:55:01.160Z,1008.47
2018-06-05T04:56:01.141Z,1008.43
2018-06-05T04:57:01.135Z,1008.45
2018-06-05T04:58:01.209Z,1008.41
2018-06-05T04:59:01.093Z,1008.42
2018-06-05T05:00:01.078Z,1008.45
2018-06-05T05:01:01.092Z,1008.39
2018-06-05T05:02:01.053Z,1008.45
2018-06-05T05:03:01.036Z,1008.43
2018-06-05T05:04:01.023Z,1008.44
2018-06-05T05:05:01.006Z,1008.39
2018-06-05T05:06:00.989Z,1008.40
2018-06-05T05:07:00.972Z,1008.43
2018-06-05T05:08:00.960Z,1008.45
2018-06-05T05:09:00.943Z,1008.46
2018-06-05T05:10:00.928Z,1008.45
2018-06-05T05:11:00.912Z,1008.45
2018-06-05T05:12:00.898Z,1008.46
2018-06-05T05:13:00.885Z,1008.47
2018-06-05T05:14:00.871Z,1008.44
2018-06-05T05:15:00.854Z,1008.47
2018-06-05T05:16:00.836Z,1008.44
2018-06-05T05:17:00.819Z,1008.48
2018-06-05T05:18:00.807Z,1008.44
2018-06-05T05:19:00.942Z,1008.45
2018-06-05T05:20:00.781Z,1008.50
2018-06-05T05:21:00.759Z,1008.51
2018-06-05T05:22:00.743Z,1008.49
2018-06-05T05:23:00.728Z,1008.51
2018-06-05T05:24:00.732Z,1008.49
2018-06-05T05:25:00.699Z,1008.53
2018-06-05T05:26:00.682Z,1008.48
2018-06-05T05:27:00.677Z,1008.48
2018-06-05T05:28:00.669Z,1008.50
2018-06-05T05:29:00.654Z,1008.50
2018-06-05T05:30:00.624Z,1008.51
2018-06-05T05:31:00.606Z,1008.49
2018-06-05T05:32:00.591Z,1008.52
2018-06-05T05:33:00.579Z,1008.49
2018-06-05T05:34:00.558Z,1008.51
2018-06-05T05:35:00.551Z,1008.51
2018-06-05T05:36:00.586Z,1008.52
2018-06-05T05:37:00.515Z,1008.51
2018-06-05T05:38:00.531Z,1008.52
2018-06-05T05:39:00.483Z,1008.55
2018-06-05T05:40:00.469Z,1008.55
2018-06-05T05:41:00.506Z,1008.56
2018-06-05T05:42:00.440Z,1008.55
2018-06-05T05:43:00.425Z,1008.55
2018-06-05T05:44:00.411Z,1008.55
2018-06-05T05:45:00.390Z,1008.53
2018-06-05T05:46:00.378Z,1008.56
2018-06-05T05:47:00.412Z,1008.56
2018-06-05T05:48:00.344Z,1008.59
2018-06-05T05:49:00.329Z,1008.59
2018-06-05T05:50:00.319Z,1008.57
2018-06-05T05:51:00.300Z,1008.59
2018-06-05T05:52:00.281Z,1008.59
2018-06-05T05:53:00.266Z,1008.61
2018-06-05T05:54:00.259Z,1008.60
2018-06-05T05:55:00.236Z,1008.59
2018-06-05T05:56:00.219Z,1008.58
2018-06-05T05:57:00.357Z,1008.58
2018-06-05T05:58:00.189Z,1008.61
2018-06-05T05:59:00.176Z,1008.61
2018-06-05T06:00:00.160Z,1008.61
2018-06-05T06:01:00.148Z,1008.62
2018-06-05T06:02:00.130Z,1008.65
2018-06-05T06:03:00.110Z,1008.66
2018-06-05T06:04:00.100Z,1008.66
2018-06-05T06:05:00.083Z,1008.70
2018-06-05T06:06:00.069Z,1008.70
2018-06-05T06:07:00.050Z,1008.72
2018-06-05T06:08:00.034Z,1008.68
2018-06-05T06:09:00.021Z,1008.70
2018-06-05T06:10:00.005Z,1008.72
2018-06-05T06:10:59.993Z,1008.75
2018-06-05T06:11:59.974Z,1008.73
2018-06-05T06:12:59.960Z,1008.72
2018-06-05T06:13:59.949Z,1008.73
2018-06-05T06:14:59.926Z,1008.75
2018-06-05T06:15:59.913Z,1008.73
2018-06-05T06:16:59.899Z,1008.73
2018-06-05T06:17:59.885Z,1008.75
2018-06-05T06:18:59.872Z,1008.73
2018-06-05T06:19:59.852Z,1008.73
2018-06-05T06:20:59.836Z,1008.73
2018-06-05T06:21:59.821Z,1008.72
2018-06-05T06:22:59.809Z,1008.71
2018-06-05T06:23:59.890Z,1008.75
2018-06-05T06:24:59.776Z,1008.74
2018-06-05T06:25:59.807Z,1008.78
2018-06-05T06:26:59.771Z,1008.79
2018-06-05T06:27:59.727Z,1008.78
2018-06-05T06:28:59.712Z,1008.82
2018-06-05T06:29:59.701Z,1008.79
2018-06-05T06:30:59.680Z,1008.78
2018-06-05T06:31:59.671Z,1008.80
2018-06-05T06:32:59.654Z,1008.80
2018-06-05T06:33:59.634Z,1008.80
2018-06-05T06:34:59.620Z,1008.78
2018-06-05T06:35:59.610Z,1008.79
2018-06-05T06:36:59.588Z,1008.85
2018-06-05T06:37:59.573Z,1008.86
2018-06-05T06:38:59.558Z,1008.84
2018-06-05T06:39:59.550Z,1008.87
2018-06-05T06:40:59.530Z,1008.88
2018-06-05T06:41:59.511Z,1008.88
2018-06-05T06:42:59.497Z,1008.89
2018-06-05T06:43:59.516Z,1008.87
2018-06-05T06:44:59.466Z,1008.85
2018-06-05T06:45:59.459Z,1008.82
2018-06-05T06:46:59.437Z,1008.84
2018-06-05T06:47:59.424Z,1008.87
2018-06-05T06:48:59.513Z,1008.87
2018-06-05T06:49:59.387Z,1008.87
2018-06-05T06:50:59.373Z,1008.91
2018-06-05T06:51:59.356Z,1008.90
2018-06-05T06:52:59.344Z,1008.90
2018-06-05T06:53:59.325Z,1008.89
2018-06-05T06:54:59.313Z,1008.92
2018-06-05T06:55:59.292Z,1008.90
2018-06-05T06:56:59.279Z,1008.96
2018-06-05T06:57:59.269Z,1008.91
2018-06-05T06:58:59.251Z,1008.94
2018-06-05T06:59:59.237Z,1008.96
2018-06-05T07:00:59.218Z,1008.95
2018-06-05T07:01:59.202Z,1008.97
2018-06-05T07:02:59.191Z,1009.01
2018-06-05T07:03:59.276Z,1008.99
2018-06-05T07:04:59.161Z,1009.00
2018-06-05T07:05:59.139Z,1009.08
2018-06-05T07:06:59.142Z,1009.03
2018-06-05T07:07:59.112Z,1009.08
2018-06-05T07:08:59.096Z,1009.06
2018-06-05T07:09:59.077Z,1009.06
2018-06-05T07:10:59.062Z,1009.08
2018-06-05T07:11:59.047Z,1009.06
2018-06-05T07:12:59.030Z,1009.04
2018-06-05T07:13:59.015Z,1009.06
2018-06-05T07:14:59.006Z,1009.02
2018-06-05T07:15:58.990Z,1009.07
2018-06-05T07:16:58.976Z,1009.06
2018-06-05T07:17:58.959Z,1009.08
2018-06-05T07:18:58.944Z,1009.11
2018-06-05T07:19:58.929Z,1009.10
2018-06-05T07:20:58.912Z,1009.10
2018-06-05T07:21:58.896Z,1009.08
2018-06-05T07:22:58.890Z,1009.10
2018-06-05T07:23:58.968Z,1009.10
2018-06-05T07:24:58.859Z,1009.11
2018-06-05T07:25:58.889Z,1009.11
2018-06-05T07:26:58.825Z,1009.13
2018-06-05T07:27:58.809Z,1009.16
2018-06-05T07:28:58.792Z,1009.13
2018-06-05T07:29:58.778Z,1009.17
2018-06-05T07:30:58.761Z,1009.18
2018-06-05T07:31:58.745Z,1009.20
2018-06-05T07:32:58.737Z,1009.16
2018-06-05T07:33:58.715Z,1009.17
2018-06-05T07:34:58.701Z,1009.18
2018-06-05T07:35:58.688Z,1009.18
2018-06-05T07:36:58.670Z,1009.22
2018-06-05T07:37:58.654Z,1009.22
2018-06-05T07:38:58.707Z,1009.21
2018-06-05T07:39:58.628Z,1009.21
2018-06-05T07:40:58.618Z,1009.17
2018-06-05T07:41:58.651Z,1009.21
2018-06-05T07:42:58.592Z,1009.19
2018-06-05T07:43:58.580Z,1009.22
2018-06-05T07:44:58.556Z,1009.23
2018-06-05T07:45:58.539Z,1009.25
2018-06-05T07:46:58.525Z,1009.27
2018-06-05T07:47:58.508Z,1009.20
2018-06-05T07:48:58.493Z,1009.22
2018-06-05T07:49:58.516Z,1009.24
2018-06-05T07:50:58.470Z,1009.23
2018-06-05T07:51:58.448Z,1009.27
2018-06-05T07:52:58.436Z,1009.22
2018-06-05T07:53:58.422Z,1009.26
2018-06-05T07:54:58.405Z,1009.24
2018-06-05T07:55:58.389Z,1009.24
2018-06-05T07:56:58.373Z,1009.22
2018-06-05T07:57:58.358Z,1009.22
2018-06-05T07:58:58.346Z,1009.21
2018-06-05T07:59:58.327Z,1009.24
2018-06-05T08:00:58.315Z,1009.30
2018-06-05T08:01:58.311Z,1009.22
2018-06-05T08:02:58.290Z,1009.22
2018-06-05T08:03:58.279Z,1009.20
2018-06-05T08:04:58.254Z,1009.22
2018-06-05T08:05:58.239Z,1009.21
2018-06-05T08:06:58.228Z,1009.22
2018-06-05T08:07:58.215Z,1009.20
2018-06-05T08:08:58.199Z,1009.22
2018-06-05T08:09:58.176Z,1009.24
2018-06-05T08:10:58.160Z,1009.23
2018-06-05T08:11:58.147Z,1009.23
2018-06-05T08:12:58.135Z,1009.21
2018-06-05T08:13:58.125Z,1009.23
2018-06-05T08:14:58.100Z,1009.24
2018-06-05T08:15:58.089Z,1009.25
2018-06-05T08:16:58.075Z,1009.28
2018-06-05T08:17:58.056Z,1009.30
2018-06-05T08:18:58.040Z,1009.31
2018-06-05T08:19:58.034Z,1009.25
2018-06-05T08:20:58.010Z,1009.31
2018-06-05T08:21:58.009Z,1009.29
2018-06-05T08:22:57.980Z,1009.28
2018-06-05T08:23:57.973Z,1009.29
2018-06-05T08:24:58.004Z,1009.25
2018-06-05T08:25:57.938Z,1009.30
2018-06-05T08:26:57.923Z,1009.27
2018-06-05T08:27:57.906Z,1009.29
2018-06-05T08:28:57.893Z,1009.28
2018-06-05T08:29:57.880Z,1009.30
2018-06-05T08:30:57.867Z,1009.28
2018-06-05T08:31:57.849Z,1009.28
2018-06-05T08:32:57.831Z,1009.31
2018-06-05T08:33:57.825Z,1009.33
2018-06-05T08:34:57.808Z,1009.31
2018-06-05T08:35:57.787Z,1009.30
2018-06-05T08:36:57.776Z,1009.31
2018-06-05T08:37:57.830Z,1009.25
2018-06-05T08:38:57.747Z,1009.28
2018-06-05T08:39:57.729Z,1009.24
2018-06-05T08:40:57.717Z,1009.27
2018-06-05T08:41:57.700Z,1009.26
2018-06-05T08:42:57.684Z,1009.25
2018-06-05T08:43:57.669Z,1009.29
2018-06-05T08:44:57.658Z,1009.27
2018-06-05T08:45:57.639Z,1009.29
2018-06-05T08:46:57.627Z,1009.31
2018-06-05T08:47:57.612Z,1009.31
2018-06-05T08:48:57.605Z,1009.32
2018-06-05T08:49:57.585Z,1009.31
2018-06-05T08:50:57.570Z,1009.29
2018-06-05T08:51:57.604Z,1009.32
2018-06-05T08:52:57.540Z,1009.25
2018-06-05T08:53:57.526Z,1009.29
2018-06-05T08:54:57.513Z,1009.31
2018-06-05T08:55:57.498Z,1009.32
2018-06-05T08:56:57.482Z,1009.31
2018-06-05T08:57:57.469Z,1009.33
2018-06-05T08:58:57.452Z,1009.33
2018-06-05T08:59:57.499Z,1009.33
2018-06-05T09:00:57.423Z,1009.36
2018-06-05T09:01:57.409Z,1009.36
2018-06-05T09:02:57.398Z,1009.38
2018-06-05T09:03:57.392Z,1009.37
2018-06-05T09:04:57.377Z,1009.36
2018-06-05T09:05:57.352Z,1009.39
2018-06-05T09:06:57.338Z,1009.37
2018-06-05T09:07:57.470Z,1009.42
2018-06-05T09:08:57.307Z,1009.41
2018-06-05T09:09:57.296Z,1009.43
2018-06-05T09:10:57.323Z,1009.45
2018-06-05T09:11:57.265Z,1009.44
2018-06-05T09:12:57.250Z,1009.40
2018-06-05T09:13:57.236Z,1009.42
2018-06-05T09:14:57.217Z,1009.38
2018-06-05T09:15:57.211Z,1009.39
2018-06-05T09:16:57.195Z,1009.37
2018-06-05T09:17:57.183Z,1009.37
2018-06-05T09:18:57.158Z,1009.38
2018-06-05T09:19:57.145Z,1009.39
2018-06-05T09:20:57.131Z,1009.38
2018-06-05T09:21:57.117Z,1009.41
2018-06-05T09:22:57.101Z,1009.36
2018-06-05T09:23:57.088Z,1009.40
2018-06-05T09:24:57.070Z,1009.37
2018-06-05T09:25:57.059Z,1009.38
2018-06-05T09:26:57.048Z,1009.42
2018-06-05T09:27:57.029Z,1009.41
2018-06-05T09:28:57.044Z,1009.45
2018-06-05T09:29:56.995Z,1009.41
2018-06-05T09:30:56.984Z,1009.43
2018-06-05T09:31:56.970Z,1009.42
2018-06-05T09:32:56.956Z,1009.44
2018-06-05T09:33:56.942Z,1009.43
2018-06-05T09:34:57.230Z,1009.44
2018-06-05T09:35:56.910Z,1009.48
2018-06-05T09:36:56.900Z,1009.46
2018-06-05T09:37:56.881Z,1009.42
2018-06-05T09:38:56.870Z,1009.42
2018-06-05T09:39:56.868Z,1009.42
2018-06-05T09:40:56.838Z,1009.42
2018-06-05T09:41:56.821Z,1009.40
2018-06-05T09:42:56.812Z,1009.41
2018-06-05T09:43:56.796Z,1009.45
2018-06-05T09:44:56.777Z,1009.46
2018-06-05T09:45:56.767Z,1009.46
2018-06-05T09:46:56.804Z,1009.46
2018-06-05T09:47:56.734Z,1009.46
2018-06-05T09:48:56.725Z,1009.48
2018-06-05T09:49:56.703Z,1009.48
2018-06-05T09:50:56.697Z,1009.49
2018-06-05T09:51:56.692Z,1009.50
2018-06-05T09:52:56.661Z,1009.50
2018-06-05T09:53:56.646Z,1009.47
2018-06-05T09:54:56.630Z,1009.49
2018-06-05T09:55:56.626Z,1009.50
2018-06-05T09:56:56.602Z,1009.49
2018-06-05T09:57:56.728Z,1009.52
2018-06-05T09:58:56.578Z,1009.51
2018-06-05T09:59:56.559Z,1009.54
2018-06-05T10:00:56.545Z,1009.53
2018-06-05T10:01:56.531Z,1009.54
2018-06-05T10:02:56.521Z,1009.55
2018-06-05T10:03:56.550Z,1009.56
2018-06-05T10:04:56.487Z,1009.55
2018-06-05T10:05:56.480Z,1009.58
2018-06-05T10:06:56.460Z,1009.55
2018-06-05T10:07:56.447Z,1009.58
2018-06-05T10:08:56.438Z,1009.61
2018-06-05T10:09:56.417Z,1009.62
2018-06-05T10:10:56.400Z,1009.59
2018-06-05T10:11:56.385Z,1009.58
2018-06-05T10:12:56.370Z,1009.58
2018-06-05T10:13:56.357Z,1009.57
2018-06-05T10:14:56.348Z,1009.58
2018-06-05T10:15:56.327Z,1009.59
2018-06-05T10:16:56.316Z,1009.61
2018-06-05T10:17:56.300Z,1009.59
2018-06-05T10:18:56.290Z,1009.59
2018-06-05T10:19:56.278Z,1009.57
2018-06-05T10:20:56.269Z,1009.57
2018-06-05T10:21:56.249Z,1009.58
2018-06-05T10:22:56.227Z,1009.56
2018-06-05T10:23:56.212Z,1009.58
2018-06-05T10:24:56.199Z,1009.56
2018-06-05T10:25:56.185Z,1009.57
2018-06-05T10:26:56.172Z,1009.58
2018-06-05T10:27:56.160Z,1009.54
2018-06-05T10:28:56.145Z,1009.58
2018-06-05T10:29:56.139Z,1009.54
2018-06-05T10:30:56.119Z,1009.57
2018-06-05T10:31:56.100Z,1009.56
2018-06-05T10:32:56.085Z,1009.54
2018-06-05T10:33:56.123Z,1009.55
2018-06-05T10:34:56.103Z,1009.53
2018-06-05T10:35:56.048Z,1009.48
2018-06-05T10:36:56.032Z,1009.50
2018-06-05T10:37:56.015Z,1009.45
2018-06-05T10:38:56.003Z,1009.47
2018-06-05T10:39:55.989Z,1009.46
2018-06-05T10:40:55.971Z,1009.46
2018-06-05T10:41:55.958Z,1009.46
2018-06-05T10:42:55.941Z,1009.43
2018-06-05T10:43:55.930Z,1009.42
2018-06-05T10:44:55.914Z,1009.48
2018-06-05T10:45:55.900Z,1009.41
2018-06-05T10:46:55.887Z,1009.42
2018-06-05T10:47:55.879Z,1009.39
2018-06-05T10:48:55.855Z,1009.44
2018-06-05T10:49:55.939Z,1009.43
2018-06-05T10:50:55.833Z,1009.43
2018-06-05T10:51:55.817Z,1009.45
2018-06-05T10:52:55.820Z,1009.43
2018-06-05T10:53:55.791Z,1009.38
2018-06-05T10:54:55.770Z,1009.37
2018-06-05T10:55:55.758Z,1009.36
2018-06-05T10:56:55.754Z,1009.42
2018-06-05T10:57:55.730Z,1009.37
2018-06-05T10:58:55.712Z,1009.36
2018-06-05T10:59:55.701Z,1009.39
2018-06-05T11:00:55.689Z,1009.39
2018-06-05T11:01:55.673Z,1009.36
2018-06-05T11:02:55.657Z,1009.36
2018-06-05T11:03:55.649Z,1009.39
2018-06-05T11:04:55.642Z,1009.39
2018-06-05T11:05:55.622Z,1009.36
2018-06-05T11:06:55.605Z,1009.36
2018-06-05T11:07:55.594Z,1009.35
2018-06-05T11:08:55.625Z,1009.35
2018-06-05T11:09:55.568Z,1009.40
2018-06-05T11:10:55.547Z,1009.35
2018-06-05T11:11:55.530Z,1009.36
2018-06-05T11:12:55.524Z,1009.38
2018-06-05T11:13:55.513Z,1009.38
2018-06-05T11:14:55.490Z,1009.38
2018-06-05T11:15:55.482Z,1009.38
2018-06-05T11:16:55.459Z,1009.38
2018-06-05T11:17:55.451Z,1009.38
2018-06-05T11:18:55.431Z,1009.39
2018-06-05T11:19:55.422Z,1009.37
2018-06-05T11:20:55.404Z,1009.36
2018-06-05T11:21:55.388Z,1009.41
2018-06-05T11:22:55.379Z,1009.39
2018-06-05T11:23:55.364Z,1009.39
2018-06-05T11:24:55.351Z,1009.41
2018-06-05T11:25:55.338Z,1009.42
2018-06-05T11:26:55.329Z,1009.41
2018-06-05T11:27:55.309Z,1009.42
2018-06-05T11:28:55.293Z,1009.39
2018-06-05T11:29:55.352Z,1009.37
2018-06-05T11:30:55.269Z,1009.36
2018-06-05T11:31:55.251Z,1009.38
2018-06-05T11:32:55.236Z,1009.36
2018-06-05T11:33:55.221Z,1009.35
2018-06-05T11:34:55.211Z,1009.38
2018-06-05T11:35:55.198Z,1009.37
2018-06-05T11:36:55.231Z,1009.36
2018-06-05T11:37:55.169Z,1009.36
2018-06-05T11:38:55.160Z,1009.38
2018-06-05T11:39:55.142Z,1009.38
2018-06-05T11:40:55.128Z,1009.35
2018-06-05T11:41:55.120Z,1009.36
2018-06-05T11:42:55.100Z,1009.36
2018-06-05T11:43:55.092Z,1009.34
2018-06-05T11:44:55.073Z,1009.35
2018-06-05T11:45:55.108Z,1009.32
2018-06-05T11:46:55.115Z,1009.29
2018-06-05T11:47:55.033Z,1009.30
2018-06-05T11:48:55.032Z,1009.31
2018-06-05T11:49:55.001Z,1009.29
2018-06-05T11:50:54.993Z,1009.27
2018-06-05T11:51:54.973Z,1009.29
2018-06-05T11:52:54.966Z,1009.27
2018-06-05T11:53:54.976Z,1009.24
2018-06-05T11:54:54.938Z,1009.20
2018-06-05T11:55:54.922Z,1009.24
2018-06-05T11:56:54.917Z,1009.20
2018-06-05T11:57:54.897Z,1009.18
2018-06-05T11:58:54.882Z,1009.22
2018-06-05T11:59:54.864Z,1009.35
2018-06-05T12:00:54.909Z,1009.24
2018-06-05T12:01:54.893Z,1009.19
2018-06-05T12:02:54.822Z,1009.16
2018-06-05T12:03:54.814Z,1009.19
2018-06-05T12:04:54.815Z,1009.17